Walbrook, Maryland
Current Conditions -  °F | °C
As of 5:08 AM on Monday 26 Jan 2015 (Local Time) from KBWI Reporting Station
Light Snow Light Snow  
Wind Chill: 23°   Ceiling: 1900
Heat Index: 34°   Visibility: 1.7mi
Dew Point: 30°   Wind: 18mph
Humidity: 87%   Direction: 60°ENE
Pressure: 29.83"   Gusts: NA
Location:  39.311°N, 76.6719°W
Report Text: KBWI 261008Z 06016KT 1 3/4SM -SN BR SCT008 BKN019 OVC031 01/M01 A2983 RMK AO2 P0000
Loading
Personal Weather Stations






























Interactive Weather Map New forecast layout! Learn more

10-Day Weather Forecast

Advertisements
Track Severe Weather on mobile